Allen, Maryland
Current Conditions -  °F | °C
As of 5:54 AM on Saturday 22 Nov 2014 (Local Time) from KSBY Reporting Station
Clear Clear  
Wind Chill: -7°   Ceiling: Unl
Heat Index: -7°   Visibility: 10mi
Dew Point: -11°   Wind: 0mph
Humidity: 77%   Direction: NA
Pressure: 30.54"   Gusts: NA
Location:  38.29°N, 75.69°W
Report Text: KSBY 221054Z 00000KT 10SM CLR M07/M11 A3054 RMK AO2 SLP345 T10721106
Loading
Personal Weather Stations






























Interactive Weather Map New forecast layout! Learn more

10-Day Weather Forecast

Advertisements
Track Severe Weather on mobile